Time;durP1;ratioP1;P1;durP2;ratioP2;P2;SDS_P1;SDS_P2;PMS_P1;PMS_P2;Temp;Humidity;BMP_temperature;BMP_pressure;BME280_temperature;BME280_humidity;BME280_pressure;Samples;Min_cycle;Max_cycle;Signal;HPM_P1;HPM_P2
2023/03/29 00:01:16;;;;;;;13.20;4.50;;;;;;;;;;5079142;28;20048;-77
2023/03/29 00:04:02;;;;;;;11.93;4.00;;;;;;;;;;5070232;28;20040;-77
2023/03/29 00:06:35;;;;;;;11.68;3.92;;;;;;;;;;5035039;28;20147;-77
2023/03/29 00:09:04;;;;;;;15.30;3.78;;;;;;;;;;5069260;28;20059;-77
2023/03/29 00:11:31;;;;;;;11.93;3.85;;;;;;;;;;5050443;28;20087;-77
2023/03/29 00:13:57;;;;;;;12.15;3.78;;;;;;;;;;5068783;28;20056;-77
2023/03/29 00:16:24;;;;;;;17.60;4.70;;;;;;;;;;5068928;28;20060;-77
2023/03/29 00:18:51;;;;;;;8.57;3.35;;;;;;;;;;5068831;28;20055;-77
2023/03/29 00:21:17;;;;;;;14.75;3.53;;;;;;;;;;5083276;28;20461;-77
2023/03/29 00:23:44;;;;;;;15.40;4.07;;;;;;;;;;5065320;28;20064;-78
2023/03/29 00:26:11;;;;;;;11.95;4.13;;;;;;;;;;5051064;28;20064;-77
2023/03/29 00:28:37;;;;;;;13.13;3.95;;;;;;;;;;5068681;28;20049;-77
2023/03/29 00:31:09;;;;;;;15.68;4.15;;;;;;;;;;5068058;28;20110;-77
2023/03/29 00:33:36;;;;;;;12.88;4.10;;;;;;;;;;5068017;28;20056;-77
2023/03/29 00:36:03;;;;;;;11.23;3.75;;;;;;;;;;5049702;28;20058;-78
2023/03/29 00:38:30;;;;;;;10.70;3.67;;;;;;;;;;5045474;28;20493;-76
2023/03/29 00:40:57;;;;;;;9.30;3.80;;;;;;;;;;5046013;28;20049;-76
2023/03/29 00:43:24;;;;;;;13.07;3.70;;;;;;;;;;5046989;28;20045;-76
2023/03/29 00:45:51;;;;;;;13.05;3.72;;;;;;;;;;5031129;28;20581;-76
2023/03/29 00:48:24;;;;;;;10.43;3.63;;;;;;;;;;5046441;28;20430;-76
2023/03/29 00:51:04;;;;;;;11.57;3.28;;;;;;;;;;5045129;28;20041;-78
2023/03/29 00:53:32;;;;;;;10.80;2.80;;;;;;;;;;5075458;28;20044;-76
2023/03/29 00:56:03;;;;;;;13.75;3.08;;;;;;;;;;5087582;28;20040;-78
2023/03/29 00:58:36;;;;;;;10.63;3.78;;;;;;;;;;5086462;28;20036;-78
2023/03/29 01:01:07;;;;;;;10.30;3.38;;;;;;;;;;5085568;28;20125;-77
2023/03/29 01:03:40;;;;;;;11.35;3.10;;;;;;;;;;5100352;28;20082;-76
2023/03/29 01:06:08;;;;;;;12.75;3.58;;;;;;;;;;5087402;28;20468;-79
2023/03/29 01:08:38;;;;;;;10.73;2.95;;;;;;;;;;5087783;28;20043;-78
2023/03/29 01:11:08;;;;;;;12.77;3.22;;;;;;;;;;5088789;28;20105;-77
2023/03/29 01:13:42;;;;;;;15.55;3.40;;;;;;;;;;5088312;28;20401;-77
2023/03/29 01:16:10;;;;;;;10.15;3.42;;;;;;;;;;5064671;28;20040;-78
2023/03/29 01:18:41;;;;;;;8.75;3.42;;;;;;;;;;5046851;28;20049;-78
2023/03/29 01:21:13;;;;;;;8.23;2.90;;;;;;;;;;5046534;28;20041;-78
2023/03/29 01:23:46;;;;;;;13.18;3.58;;;;;;;;;;5044968;28;20471;-77
2023/03/29 01:26:25;;;;;;;9.80;3.50;;;;;;;;;;5048938;28;20132;-76
2023/03/29 01:29:03;;;;;;;8.35;2.88;;;;;;;;;;5063441;28;20045;-75
2023/03/29 01:31:33;;;;;;;11.25;2.78;;;;;;;;;;5048983;28;20521;-78
2023/03/29 01:34:06;;;;;;;10.82;3.10;;;;;;;;;;5048024;28;20041;-78
2023/03/29 01:36:36;;;;;;;9.90;2.80;;;;;;;;;;5048086;28;20144;-76
2023/03/29 01:39:05;;;;;;;12.82;3.08;;;;;;;;;;5046651;28;20606;-77
2023/03/29 01:41:45;;;;;;;11.45;2.95;;;;;;;;;;5047206;28;20048;-77
2023/03/29 01:44:15;;;;;;;9.63;2.95;;;;;;;;;;5045968;28;20169;-76
2023/03/29 01:46:45;;;;;;;9.70;2.70;;;;;;;;;;5046925;28;20156;-77
2023/03/29 01:49:12;;;;;;;11.55;3.33;;;;;;;;;;5039791;28;20040;-77
2023/03/29 01:51:40;;;;;;;7.72;3.28;;;;;;;;;;5049093;28;20047;-77
2023/03/29 01:54:11;;;;;;;10.52;3.17;;;;;;;;;;5072915;28;20040;-76
2023/03/29 01:56:40;;;;;;;14.32;2.90;;;;;;;;;;5088917;28;20040;-78
2023/03/29 01:59:10;;;;;;;12.05;3.35;;;;;;;;;;5070758;28;20044;-77
2023/03/29 02:01:39;;;;;;;12.95;2.97;;;;;;;;;;5067764;28;20040;-77
2023/03/29 02:04:09;;;;;;;10.40;3.47;;;;;;;;;;5086546;28;20063;-77
2023/03/29 02:06:36;;;;;;;13.40;3.00;;;;;;;;;;5068082;28;20123;-77
2023/03/29 02:09:03;;;;;;;5.95;2.72;;;;;;;;;;5086202;28;20048;-76
2023/03/29 02:11:30;;;;;;;13.00;2.83;;;;;;;;;;5067880;28;20040;-77
2023/03/29 02:14:00;;;;;;;12.35;3.17;;;;;;;;;;5068254;28;20109;-77
2023/03/29 02:16:27;;;;;;;9.43;3.05;;;;;;;;;;5086257;28;20041;-79
2023/03/29 02:18:55;;;;;;;10.20;2.97;;;;;;;;;;5068655;28;20044;-78
2023/03/29 02:21:47;;;;;;;9.75;2.60;;;;;;;;;;5090883;28;20110;-77
2023/03/29 02:24:15;;;;;;;10.75;3.17;;;;;;;;;;5091050;28;20265;-77
2023/03/29 02:26:41;;;;;;;9.15;2.92;;;;;;;;;;5099668;28;20056;-77
2023/03/29 02:29:08;;;;;;;9.45;3.33;;;;;;;;;;5070557;28;20045;-77
2023/03/29 02:31:42;;;;;;;13.50;3.42;;;;;;;;;;5050803;28;20045;-76
2023/03/29 02:34:12;;;;;;;8.52;2.88;;;;;;;;;;5066152;28;20047;-77
2023/03/29 02:36:45;;;;;;;8.68;3.08;;;;;;;;;;5047251;28;20076;-76
2023/03/29 02:39:16;;;;;;;9.27;3.13;;;;;;;;;;5048037;28;20103;-76
2023/03/29 02:41:44;;;;;;;11.95;3.15;;;;;;;;;;5065475;28;20429;-76
2023/03/29 02:44:13;;;;;;;9.88;3.30;;;;;;;;;;5047382;28;20094;-77
2023/03/29 02:46:41;;;;;;;10.80;3.20;;;;;;;;;;5046343;28;20338;-77
2023/03/29 02:49:09;;;;;;;12.88;3.38;;;;;;;;;;5030520;28;20056;-77
2023/03/29 02:51:37;;;;;;;10.13;2.97;;;;;;;;;;5064635;28;20043;-77
2023/03/29 02:54:18;;;;;;;11.18;3.50;;;;;;;;;;5066621;28;20049;-77
2023/03/29 02:56:53;;;;;;;10.10;3.03;;;;;;;;;;5049631;28;20136;-78
2023/03/29 02:59:21;;;;;;;9.00;2.97;;;;;;;;;;5034840;28;20042;-76
2023/03/29 03:01:51;;;;;;;10.90;3.03;;;;;;;;;;5068227;28;20036;-76
2023/03/29 03:04:21;;;;;;;6.68;2.58;;;;;;;;;;5050776;28;20051;-78
2023/03/29 03:06:48;;;;;;;7.25;2.00;;;;;;;;;;5034516;28;20471;-77
2023/03/29 03:09:15;;;;;;;7.88;2.25;;;;;;;;;;5050431;28;20032;-76
2023/03/29 03:11:44;;;;;;;6.10;1.90;;;;;;;;;;5050987;28;20090;-76
2023/03/29 03:14:11;;;;;;;9.43;2.22;;;;;;;;;;5051182;28;20039;-77
2023/03/29 03:16:38;;;;;;;6.72;1.75;;;;;;;;;;5049869;28;20040;-76
2023/03/29 03:19:05;;;;;;;9.27;1.73;;;;;;;;;;5050759;28;20048;-75
2023/03/29 03:21:34;;;;;;;8.48;2.03;;;;;;;;;;5067697;28;20075;-76
2023/03/29 03:24:00;;;;;;;7.10;1.88;;;;;;;;;;5047913;28;20043;-78
2023/03/29 03:26:28;;;;;;;10.05;1.77;;;;;;;;;;5051437;28;20191;-78
2023/03/29 03:28:55;;;;;;;5.35;2.03;;;;;;;;;;5051206;28;20045;-78
2023/03/29 03:31:41;;;;;;;4.28;1.48;;;;;;;;;;5067030;28;20043;-77
2023/03/29 03:34:12;;;;;;;4.78;2.00;;;;;;;;;;5050822;28;20040;-79
2023/03/29 03:36:46;;;;;;;6.88;2.47;;;;;;;;;;5050149;28;20044;-78
2023/03/29 03:39:13;;;;;;;3.22;1.73;;;;;;;;;;5032901;28;20125;-77
2023/03/29 03:41:41;;;;;;;9.65;2.10;;;;;;;;;;5067050;28;20052;-77
2023/03/29 03:44:07;;;;;;;7.78;2.08;;;;;;;;;;5037297;28;20094;-77
2023/03/29 03:46:34;;;;;;;6.40;1.90;;;;;;;;;;5066041;28;20309;-77
2023/03/29 03:49:03;;;;;;;8.40;2.10;;;;;;;;;;5066320;28;20041;-77
2023/03/29 03:51:33;;;;;;;7.80;1.85;;;;;;;;;;5065589;28;20081;-78
2023/03/29 03:54:00;;;;;;;6.13;2.30;;;;;;;;;;5055498;28;20045;-77
2023/03/29 03:56:33;;;;;;;3.78;1.65;;;;;;;;;;5049689;28;20124;-78
2023/03/29 03:59:02;;;;;;;4.75;2.10;;;;;;;;;;5063887;28;20044;-77
2023/03/29 04:01:36;;;;;;;5.45;1.90;;;;;;;;;;5037150;28;20041;-78
2023/03/29 04:04:13;;;;;;;8.15;2.13;;;;;;;;;;5027642;28;20128;-80
2023/03/29 04:07:01;;;;;;;13.70;4.15;;;;;;;;;;5048008;28;20067;-77
2023/03/29 04:09:33;;;;;;;10.30;3.35;;;;;;;;;;5048979;28;20045;-78
2023/03/29 04:12:23;;;;;;;9.93;2.80;;;;;;;;;;5045736;28;20052;-78
2023/03/29 04:14:50;;;;;;;8.52;2.45;;;;;;;;;;5046152;28;20072;-77
2023/03/29 04:17:19;;;;;;;7.88;2.20;;;;;;;;;;5048358;28;20041;-79
2023/03/29 04:19:54;;;;;;;6.25;2.08;;;;;;;;;;5046461;28;20466;-77
2023/03/29 04:22:21;;;;;;;9.02;2.20;;;;;;;;;;5048727;28;20443;-77
2023/03/29 04:24:50;;;;;;;10.13;2.42;;;;;;;;;;5042639;28;20048;-77
2023/03/29 04:27:49;;;;;;;6.28;2.22;;;;;;;;;;5049716;28;20056;-77
2023/03/29 04:30:48;;;;;;;6.70;2.30;;;;;;;;;;5036872;28;20048;-80
2023/03/29 04:33:32;;;;;;;8.75;2.30;;;;;;;;;;5046292;28;20123;-76
2023/03/29 04:35:59;;;;;;;6.93;2.75;;;;;;;;;;5062373;28;20045;-76
2023/03/29 04:38:34;;;;;;;7.25;2.58;;;;;;;;;;5038596;28;20123;-77
2023/03/29 04:41:04;;;;;;;5.43;2.58;;;;;;;;;;5039744;28;20079;-77
2023/03/29 04:43:56;;;;;;;10.40;2.80;;;;;;;;;;5028447;28;20143;-77
2023/03/29 04:46:25;;;;;;;10.40;3.08;;;;;;;;;;5045992;28;20629;-77
2023/03/29 04:49:11;;;;;;;8.60;2.50;;;;;;;;;;5066960;28;20094;-78
2023/03/29 04:51:42;;;;;;;9.35;2.72;;;;;;;;;;5056660;28;20117;-78
2023/03/29 04:54:09;;;;;;;7.57;2.78;;;;;;;;;;5068919;28;20101;-77
2023/03/29 04:56:56;;;;;;;8.30;2.97;;;;;;;;;;5067976;28;20051;-79
2023/03/29 04:59:49;;;;;;;7.25;2.85;;;;;;;;;;5085313;28;20127;-79
2023/03/29 05:02:35;;;;;;;9.40;2.88;;;;;;;;;;5076761;28;20055;-78
2023/03/29 05:05:02;;;;;;;7.85;3.30;;;;;;;;;;5050268;28;20117;-79
2023/03/29 05:07:29;;;;;;;8.98;2.95;;;;;;;;;;5047977;28;20647;-77
2023/03/29 05:09:56;;;;;;;10.50;3.13;;;;;;;;;;5048730;28;20094;-77
2023/03/29 05:12:22;;;;;;;10.10;3.33;;;;;;;;;;5044846;28;20041;-78
2023/03/29 05:14:51;;;;;;;9.32;3.38;;;;;;;;;;5050841;28;20495;-78
2023/03/29 05:17:20;;;;;;;8.77;3.10;;;;;;;;;;5041007;28;20383;-80
2023/03/29 05:19:48;;;;;;;11.60;3.70;;;;;;;;;;5048607;28;20549;-77
2023/03/29 05:22:15;;;;;;;10.00;3.58;;;;;;;;;;5052525;28;20036;-77
2023/03/29 05:24:47;;;;;;;7.00;3.20;;;;;;;;;;5046669;28;20040;-78
2023/03/29 05:27:18;;;;;;;11.65;3.53;;;;;;;;;;5037847;28;20037;-77
2023/03/29 05:29:56;;;;;;;12.45;3.63;;;;;;;;;;5047852;28;20044;-77
2023/03/29 05:32:29;;;;;;;8.15;3.35;;;;;;;;;;5051018;28;20033;-77
2023/03/29 05:34:56;;;;;;;10.10;3.65;;;;;;;;;;5045548;28;20438;-78
2023/03/29 05:37:23;;;;;;;10.57;3.03;;;;;;;;;;5075150;28;20104;-78
2023/03/29 05:39:56;;;;;;;13.25;3.42;;;;;;;;;;5081728;28;20051;-78
2023/03/29 05:42:39;;;;;;;12.02;3.95;;;;;;;;;;5091680;28;20512;-78
2023/03/29 05:45:08;;;;;;;11.10;3.97;;;;;;;;;;5090689;28;20044;-78
2023/03/29 05:47:34;;;;;;;11.73;3.72;;;;;;;;;;5090341;28;20039;-78
2023/03/29 05:50:02;;;;;;;8.20;3.95;;;;;;;;;;5088999;28;20127;-75
2023/03/29 05:52:29;;;;;;;11.50;3.92;;;;;;;;;;5061553;28;20610;-77
2023/03/29 05:54:55;;;;;;;8.68;3.50;;;;;;;;;;5080167;28;20047;-78
2023/03/29 05:57:22;;;;;;;6.85;3.60;;;;;;;;;;5090121;28;20048;-80
2023/03/29 05:59:48;;;;;;;8.43;3.78;;;;;;;;;;5070305;28;20150;-79
2023/03/29 06:02:15;;;;;;;10.07;4.15;;;;;;;;;;5088783;28;20495;-77
2023/03/29 06:04:47;;;;;;;8.43;3.88;;;;;;;;;;5090760;28;20036;-79
2023/03/29 06:07:23;;;;;;;10.25;3.92;;;;;;;;;;5088285;28;20477;-77
2023/03/29 06:10:25;;;;;;;8.05;4.40;;;;;;;;;;4990811;28;20061;-80
2023/03/29 06:13:03;;;;;;;8.65;4.80;;;;;;;;;;5073642;28;20108;-77
2023/03/29 06:15:33;;;;;;;9.70;4.22;;;;;;;;;;5060871;28;20519;-77
2023/03/29 06:18:04;;;;;;;8.18;4.05;;;;;;;;;;5057722;28;20058;-77
2023/03/29 06:20:33;;;;;;;9.32;4.38;;;;;;;;;;5065688;28;20044;-77
2023/03/29 06:23:07;;;;;;;8.45;4.30;;;;;;;;;;5065608;28;20051;-77
2023/03/29 06:25:34;;;;;;;10.50;4.47;;;;;;;;;;5052212;28;20054;-77
2023/03/29 06:28:01;;;;;;;10.95;4.70;;;;;;;;;;5067930;28;20052;-77
2023/03/29 06:30:28;;;;;;;9.35;4.70;;;;;;;;;;5049161;28;20071;-76
2023/03/29 06:32:57;;;;;;;8.27;4.47;;;;;;;;;;5070732;28;20048;-77
2023/03/29 06:35:46;;;;;;;8.32;4.32;;;;;;;;;;5068557;28;20101;-76
2023/03/29 06:38:16;;;;;;;7.63;4.15;;;;;;;;;;5049781;28;20036;-77
2023/03/29 06:41:05;;;;;;;10.30;4.47;;;;;;;;;;5068959;28;20396;-77
2023/03/29 06:43:49;;;;;;;9.90;4.68;;;;;;;;;;5050372;28;20059;-78
2023/03/29 06:46:15;;;;;;;8.00;4.13;;;;;;;;;;5051383;28;20108;-77
2023/03/29 06:48:54;;;;;;;7.95;3.90;;;;;;;;;;5051558;28;20476;-77
2023/03/29 06:51:22;;;;;;;12.43;4.57;;;;;;;;;;5050564;28;20044;-76
2023/03/29 06:53:49;;;;;;;6.72;4.05;;;;;;;;;;5075331;28;20468;-77
2023/03/29 06:56:16;;;;;;;8.10;4.25;;;;;;;;;;5070870;28;20558;-77
2023/03/29 06:58:53;;;;;;;6.55;3.78;;;;;;;;;;5090076;28;20044;-78
2023/03/29 07:01:27;;;;;;;8.40;4.33;;;;;;;;;;5067281;28;20520;-79
2023/03/29 07:04:03;;;;;;;6.75;3.58;;;;;;;;;;5051391;28;20329;-77
2023/03/29 07:06:38;;;;;;;6.78;3.92;;;;;;;;;;5050525;28;20055;-76
2023/03/29 07:09:05;;;;;;;5.35;3.58;;;;;;;;;;5050091;28;20045;-79
2023/03/29 07:11:55;;;;;;;7.68;3.60;;;;;;;;;;5085754;28;20056;-77
2023/03/29 07:14:27;;;;;;;6.90;3.65;;;;;;;;;;5052216;28;20036;-78
2023/03/29 07:16:55;;;;;;;9.20;4.20;;;;;;;;;;5057129;28;20453;-78
2023/03/29 07:19:32;;;;;;;8.55;3.95;;;;;;;;;;5071774;28;20048;-78
2023/03/29 07:22:05;;;;;;;6.75;3.70;;;;;;;;;;5070709;28;20434;-78
2023/03/29 07:24:42;;;;;;;6.70;3.75;;;;;;;;;;5056138;28;20159;-78
2023/03/29 07:27:09;;;;;;;8.40;3.63;;;;;;;;;;5073523;28;20310;-79
2023/03/29 07:29:36;;;;;;;8.35;3.90;;;;;;;;;;5054284;28;20040;-78
2023/03/29 07:32:03;;;;;;;6.35;3.75;;;;;;;;;;5071468;28;20052;-77
2023/03/29 07:34:40;;;;;;;7.03;3.75;;;;;;;;;;5074020;28;20097;-78
2023/03/29 07:37:12;;;;;;;5.35;3.38;;;;;;;;;;5070357;28;20071;-78
2023/03/29 07:39:42;;;;;;;7.03;3.53;;;;;;;;;;5051573;28;20083;-77
2023/03/29 07:42:31;;;;;;;6.72;3.58;;;;;;;;;;5062605;28;20044;-78
2023/03/29 07:44:58;;;;;;;7.97;3.80;;;;;;;;;;5054496;28;20406;-78
2023/03/29 07:47:31;;;;;;;7.72;3.72;;;;;;;;;;5066687;28;20036;-77
2023/03/29 07:49:58;;;;;;;8.27;4.00;;;;;;;;;;5060456;28;20036;-77
2023/03/29 07:52:27;;;;;;;7.05;3.67;;;;;;;;;;5072955;28;20460;-77
2023/03/29 07:54:54;;;;;;;9.55;3.63;;;;;;;;;;5080884;28;20043;-78
2023/03/29 07:57:33;;;;;;;7.03;3.83;;;;;;;;;;5091482;28;20088;-78
2023/03/29 07:59:59;;;;;;;8.23;3.80;;;;;;;;;;5108368;28;20254;-78
2023/03/29 08:02:39;;;;;;;8.07;3.45;;;;;;;;;;5072300;28;20094;-78
2023/03/29 08:05:05;;;;;;;8.23;3.63;;;;;;;;;;5070337;28;20046;-78
2023/03/29 08:07:45;;;;;;;6.55;3.95;;;;;;;;;;5069569;28;20048;-78
2023/03/29 08:10:41;;;;;;;7.20;3.67;;;;;;;;;;5071275;28;20048;-78
2023/03/29 08:13:14;;;;;;;6.40;3.25;;;;;;;;;;5090035;28;20123;-79
2023/03/29 08:15:54;;;;;;;7.22;3.58;;;;;;;;;;5069832;28;20131;-77
2023/03/29 08:18:32;;;;;;;5.60;3.22;;;;;;;;;;5069552;28;20047;-78
2023/03/29 08:21:02;;;;;;;8.05;2.97;;;;;;;;;;5052776;28;20051;-78
2023/03/29 08:23:29;;;;;;;8.13;3.40;;;;;;;;;;5068217;28;20376;-77
2023/03/29 08:26:07;;;;;;;9.65;3.20;;;;;;;;;;5072031;28;20303;-78
2023/03/29 08:28:36;;;;;;;5.43;3.40;;;;;;;;;;5072249;28;20580;-77
2023/03/29 08:31:03;;;;;;;6.38;3.50;;;;;;;;;;5070579;28;20394;-78
2023/03/29 08:33:31;;;;;;;4.97;3.10;;;;;;;;;;5070308;28;20056;-78
2023/03/29 08:36:36;;;;;;;6.53;3.65;;;;;;;;;;5061404;28;20407;-79
2023/03/29 08:39:10;;;;;;;7.93;3.40;;;;;;;;;;5067878;28;20040;-79
2023/03/29 08:41:46;;;;;;;5.57;3.08;;;;;;;;;;5054597;28;20415;-79
2023/03/29 08:44:15;;;;;;;8.63;3.50;;;;;;;;;;5070125;28;20100;-79
2023/03/29 08:47:20;;;;;;;6.30;3.63;;;;;;;;;;5069909;28;20044;-80
2023/03/29 08:49:50;;;;;;;6.70;3.08;;;;;;;;;;5018579;28;20048;-78
2023/03/29 08:52:30;;;;;;;6.25;3.47;;;;;;;;;;5070378;28;20378;-78
2023/03/29 08:54:59;;;;;;;6.25;3.55;;;;;;;;;;5047527;28;20052;-79
2023/03/29 08:57:27;;;;;;;8.32;3.63;;;;;;;;;;5048391;28;20044;-79
2023/03/29 09:00:03;;;;;;;7.60;3.70;;;;;;;;;;5028072;28;20045;-77
2023/03/29 09:02:35;;;;;;;;;;;;;;;;;;5045881;28;20051;-78
2023/03/29 09:05:17;;;;;;;6.07;3.30;;;;;;;;;;5045402;28;19924;-78
2023/03/29 09:07:54;;;;;;;6.97;3.20;;;;;;;;;;5045745;28;20059;-77
2023/03/29 09:10:23;;;;;;;6.18;3.53;;;;;;;;;;5048960;28;20488;-77
2023/03/29 09:12:50;;;;;;;5.68;3.35;;;;;;;;;;5063158;28;20174;-77
2023/03/29 09:15:19;;;;;;;9.27;3.67;;;;;;;;;;5045505;28;20081;-78
2023/03/29 09:18:04;;;;;;;6.18;3.42;;;;;;;;;;5031347;28;20559;-77
2023/03/29 09:20:32;;;;;;;9.27;3.85;;;;;;;;;;5050472;28;20241;-79
2023/03/29 09:22:58;;;;;;;6.70;3.65;;;;;;;;;;5041234;28;20064;-79
2023/03/29 09:25:31;;;;;;;6.35;3.60;;;;;;;;;;5061464;28;20054;-78
2023/03/29 09:28:33;;;;;;;6.60;3.20;;;;;;;;;;5058565;28;20068;-78
2023/03/29 09:31:04;;;;;;;8.23;3.47;;;;;;;;;;5037971;28;20116;-79
2023/03/29 09:33:42;;;;;;;8.45;3.60;;;;;;;;;;5070279;28;20108;-78
2023/03/29 09:36:18;;;;;;;8.20;3.65;;;;;;;;;;5040272;28;20412;-78
2023/03/29 09:38:49;;;;;;;9.55;3.58;;;;;;;;;;5065777;28;20118;-77
2023/03/29 09:41:23;;;;;;;12.73;2.85;;;;;;;;;;5056833;28;20036;-77
2023/03/29 09:43:54;;;;;;;7.63;3.45;;;;;;;;;;5064636;28;20124;-78
2023/03/29 09:46:35;;;;;;;6.57;3.22;;;;;;;;;;5063815;28;20047;-78
2023/03/29 09:49:03;;;;;;;7.63;3.30;;;;;;;;;;5062190;28;20049;-78
2023/03/29 09:51:31;;;;;;;10.73;3.45;;;;;;;;;;5065469;28;20044;-77
2023/03/29 09:53:59;;;;;;;9.93;3.28;;;;;;;;;;5068515;28;20142;-77
2023/03/29 09:57:04;;;;;;;10.27;3.13;;;;;;;;;;5052673;28;20102;-79
2023/03/29 09:59:31;;;;;;;6.60;3.13;;;;;;;;;;5048578;28;20041;-79
2023/03/29 10:02:05;;;;;;;6.05;3.70;;;;;;;;;;5063381;28;20075;-82
2023/03/29 10:04:32;;;;;;;6.20;3.25;;;;;;;;;;5070502;28;20048;-79
2023/03/29 10:06:59;;;;;;;4.28;2.63;;;;;;;;;;5072398;28;20082;-81
2023/03/29 10:09:27;;;;;;;5.45;2.85;;;;;;;;;;5069787;28;20109;-82
2023/03/29 10:12:05;;;;;;;5.53;2.90;;;;;;;;;;5073775;28;20580;-79
2023/03/29 10:14:35;;;;;;;6.40;3.15;;;;;;;;;;5075066;28;20071;-79
2023/03/29 10:17:04;;;;;;;7.07;3.03;;;;;;;;;;5075135;28;20114;-79
2023/03/29 10:19:33;;;;;;;6.35;2.78;;;;;;;;;;5074722;28;20044;-78
2023/03/29 10:22:06;;;;;;;7.00;2.63;;;;;;;;;;5073381;28;20041;-78
2023/03/29 10:24:33;;;;;;;8.45;3.20;;;;;;;;;;5072282;28;20136;-79
2023/03/29 10:27:01;;;;;;;8.05;2.80;;;;;;;;;;5073697;28;20230;-79
2023/03/29 10:29:35;;;;;;;5.45;2.97;;;;;;;;;;5072997;28;20048;-79
2023/03/29 10:32:15;;;;;;;6.32;2.80;;;;;;;;;;5071021;28;20543;-79
2023/03/29 10:34:42;;;;;;;6.10;2.50;;;;;;;;;;5071554;28;20068;-79
2023/03/29 10:37:09;;;;;;;8.75;2.78;;;;;;;;;;5075065;28;20209;-80
2023/03/29 10:39:36;;;;;;;6.40;2.38;;;;;;;;;;5073171;28;20150;-80
2023/03/29 10:42:03;;;;;;;5.80;2.70;;;;;;;;;;5070400;28;20040;-79
2023/03/29 10:44:31;;;;;;;6.88;2.80;;;;;;;;;;5054584;28;20489;-80
2023/03/29 10:47:13;;;;;;;5.50;2.50;;;;;;;;;;5035657;28;20121;-80
2023/03/29 10:50:00;;;;;;;6.43;2.50;;;;;;;;;;5054080;28;20052;-80
2023/03/29 10:52:28;;;;;;;5.82;2.40;;;;;;;;;;5064765;28;20052;-78
2023/03/29 10:54:55;;;;;;;3.60;1.92;;;;;;;;;;5089017;28;20143;-78
2023/03/29 10:57:40;;;;;;;4.10;2.47;;;;;;;;;;5096272;28;20377;-79
2023/03/29 11:00:07;;;;;;;7.13;2.58;;;;;;;;;;5113639;28;20047;-79
2023/03/29 11:02:45;;;;;;;5.57;2.33;;;;;;;;;;5062836;28;20048;-79
2023/03/29 11:05:12;;;;;;;4.30;2.33;;;;;;;;;;5076484;28;20138;-78
2023/03/29 11:07:57;;;;;;;7.53;2.72;;;;;;;;;;5065031;28;20111;-78
2023/03/29 11:10:33;;;;;;;6.20;3.20;;;;;;;;;;5065866;28;20075;-79
2023/03/29 11:13:03;;;;;;;6.13;2.88;;;;;;;;;;5103680;28;20036;-79
2023/03/29 11:15:52;;;;;;;4.82;2.83;;;;;;;;;;5106595;28;20052;-79
2023/03/29 11:18:27;;;;;;;7.07;2.83;;;;;;;;;;5086799;28;20043;-78
2023/03/29 11:21:11;;;;;;;7.00;2.75;;;;;;;;;;5080541;28;20055;-80
2023/03/29 11:23:47;;;;;;;5.22;2.58;;;;;;;;;;5051096;28;20037;-80
2023/03/29 11:26:13;;;;;;;;;;;;;;;;;;5051434;28;20181;-77
2023/03/29 11:29:01;;;;;;;7.40;2.60;;;;;;;;;;5050674;28;19921;-80
2023/03/29 11:31:28;;;;;;;4.70;2.88;;;;;;;;;;5053390;28;20489;-79
2023/03/29 11:33:58;;;;;;;4.50;2.45;;;;;;;;;;5071267;28;20040;-79
2023/03/29 11:36:50;;;;;;;5.70;3.08;;;;;;;;;;5091306;28;20051;-80
2023/03/29 11:39:38;;;;;;;5.15;2.90;;;;;;;;;;5043605;28;20454;-80
2023/03/29 11:42:20;;;;;;;5.10;2.70;;;;;;;;;;5091646;28;20044;-80
2023/03/29 11:44:50;;;;;;;8.85;3.00;;;;;;;;;;5088920;28;20126;-78
2023/03/29 11:47:22;;;;;;;6.57;2.92;;;;;;;;;;5074684;28;20192;-79
2023/03/29 11:49:53;;;;;;;5.50;3.20;;;;;;;;;;5091798;28;20062;-80
2023/03/29 11:52:34;;;;;;;5.30;2.95;;;;;;;;;;5094417;28;20535;-79
2023/03/29 11:55:18;;;;;;;5.07;2.95;;;;;;;;;;5104373;28;20074;-81
2023/03/29 11:57:48;;;;;;;10.07;3.10;;;;;;;;;;5112613;28;20049;-79
2023/03/29 12:00:17;;;;;;;5.07;2.88;;;;;;;;;;5109833;28;20364;-78
2023/03/29 12:02:51;;;;;;;7.63;2.95;;;;;;;;;;5081191;28;20068;-80
2023/03/29 12:05:23;;;;;;;7.65;3.40;;;;;;;;;;5097715;28;20040;-79
2023/03/29 12:07:53;;;;;;;5.38;2.67;;;;;;;;;;5096721;28;20051;-79
2023/03/29 12:10:22;;;;;;;8.93;3.13;;;;;;;;;;5077083;28;20187;-78
2023/03/29 12:12:58;;;;;;;7.93;3.22;;;;;;;;;;5104397;28;20048;-78
2023/03/29 12:15:29;;;;;;;7.13;3.20;;;;;;;;;;5076516;28;20052;-79
2023/03/29 12:18:12;;;;;;;7.22;3.10;;;;;;;;;;5074110;28;20117;-79
2023/03/29 12:20:40;;;;;;;8.70;3.65;;;;;;;;;;5073678;28;20047;-78
2023/03/29 12:23:13;;;;;;;5.70;3.15;;;;;;;;;;5071037;28;20495;-78
2023/03/29 12:25:53;;;;;;;6.15;2.80;;;;;;;;;;5073755;28;20109;-79
2023/03/29 12:28:28;;;;;;;7.00;3.20;;;;;;;;;;5093532;28;20406;-79
2023/03/29 12:31:03;;;;;;;7.28;3.30;;;;;;;;;;5076546;28;20095;-80
2023/03/29 12:34:03;;;;;;;6.93;3.33;;;;;;;;;;5075854;28;20107;-80
2023/03/29 12:37:05;;;;;;;6.68;3.30;;;;;;;;;;5005948;28;20036;-78
2023/03/29 12:39:45;;;;;;;5.90;3.60;;;;;;;;;;5088968;28;20154;-80
2023/03/29 12:42:30;;;;;;;;;;;;;;;;;;5090530;28;20066;-80
2023/03/29 12:45:37;;;;;;;6.57;2.75;;;;;;;;;;5070682;28;19929;-78
2023/03/29 12:48:07;;;;;;;3.88;2.40;;;;;;;;;;5053523;28;20068;-80
2023/03/29 12:50:35;;;;;;;6.47;2.58;;;;;;;;;;5062972;28;20040;-80
2023/03/29 12:53:14;;;;;;;9.07;2.85;;;;;;;;;;5064463;28;20124;-81
2023/03/29 12:55:42;;;;;;;4.65;2.65;;;;;;;;;;5083327;28;20062;-81
2023/03/29 12:58:20;;;;;;;4.30;2.33;;;;;;;;;;5038775;28;20060;-80
2023/03/29 13:00:55;;;;;;;3.67;2.40;;;;;;;;;;5049402;28;20048;-79
2023/03/29 13:03:33;;;;;;;10.50;3.10;;;;;;;;;;5057494;28;20040;-81
2023/03/29 13:06:02;;;;;;;5.30;2.55;;;;;;;;;;5068829;28;20045;-80
2023/03/29 13:08:44;;;;;;;6.35;2.50;;;;;;;;;;5046856;28;20059;-80
2023/03/29 13:11:23;;;;;;;5.68;2.45;;;;;;;;;;5063390;28;20048;-80
2023/03/29 13:13:52;;;;;;;3.65;2.40;;;;;;;;;;5049776;28;20036;-79
2023/03/29 13:16:20;;;;;;;5.53;2.65;;;;;;;;;;5049063;28;20480;-81
2023/03/29 13:18:53;;;;;;;5.82;2.70;;;;;;;;;;5047865;28;20124;-80
2023/03/29 13:21:23;;;;;;;4.03;2.38;;;;;;;;;;5056375;28;20040;-78
2023/03/29 13:23:55;;;;;;;7.00;2.65;;;;;;;;;;5045152;28;20078;-79
2023/03/29 13:26:22;;;;;;;4.70;2.70;;;;;;;;;;5067913;28;20117;-79
2023/03/29 13:29:15;;;;;;;4.25;2.50;;;;;;;;;;5047454;28;20103;-78
2023/03/29 13:31:55;;;;;;;5.57;2.67;;;;;;;;;;5038306;28;20106;-79
2023/03/29 13:34:27;;;;;;;5.13;2.75;;;;;;;;;;5063320;28;20044;-77
2023/03/29 13:36:57;;;;;;;7.85;2.60;;;;;;;;;;5048376;28;20049;-82
2023/03/29 13:39:28;;;;;;;6.90;2.58;;;;;;;;;;5050173;28;20815;-81
2023/03/29 13:42:14;;;;;;;6.00;2.60;;;;;;;;;;5071064;28;20044;-79
2023/03/29 13:44:47;;;;;;;4.38;2.50;;;;;;;;;;5065760;28;20041;-80
2023/03/29 13:47:18;;;;;;;7.07;2.95;;;;;;;;;;5035157;28;20052;-81
2023/03/29 13:49:53;;;;;;;5.03;2.47;;;;;;;;;;5048355;28;20163;-81
2023/03/29 13:52:30;;;;;;;9.43;2.20;;;;;;;;;;5064098;28;20071;-81
2023/03/29 13:54:59;;;;;;;7.68;2.10;;;;;;;;;;5069243;28;20074;-80
2023/03/29 13:57:36;;;;;;;4.47;2.30;;;;;;;;;;5090518;28;20131;-80
2023/03/29 14:00:15;;;;;;;4.85;2.22;;;;;;;;;;5070539;28;20093;-81
2023/03/29 14:02:46;;;;;;;5.63;2.28;;;;;;;;;;5089278;28;20131;-81
2023/03/29 14:05:20;;;;;;;6.43;2.40;;;;;;;;;;5071207;28;20052;-80
2023/03/29 14:07:52;;;;;;;4.07;2.30;;;;;;;;;;5089639;28;20048;-81
2023/03/29 14:10:39;;;;;;;5.50;2.38;;;;;;;;;;5070731;28;20096;-81
2023/03/29 14:13:06;;;;;;;5.72;2.30;;;;;;;;;;5072026;28;20052;-80
2023/03/29 14:15:39;;;;;;;6.13;2.80;;;;;;;;;;5071340;28;20036;-81
2023/03/29 14:18:08;;;;;;;6.38;2.88;;;;;;;;;;5078416;28;20048;-80
2023/03/29 14:20:36;;;;;;;6.28;2.70;;;;;;;;;;5071002;28;20040;-81
2023/03/29 14:23:10;;;;;;;6.55;3.35;;;;;;;;;;5088138;28;20594;-81
2023/03/29 14:25:40;;;;;;;4.63;2.50;;;;;;;;;;5072652;28;20044;-81
2023/03/29 14:28:26;;;;;;;8.10;2.30;;;;;;;;;;5090822;28;20048;-80
2023/03/29 14:30:54;;;;;;;4.78;2.28;;;;;;;;;;5073457;28;20040;-80
2023/03/29 14:33:28;;;;;;;4.40;2.30;;;;;;;;;;5091627;28;20511;-81
2023/03/29 14:35:57;;;;;;;4.25;2.00;;;;;;;;;;5071357;28;20491;-80
2023/03/29 14:38:25;;;;;;;3.67;2.05;;;;;;;;;;5056910;28;20040;-80
2023/03/29 14:40:56;;;;;;;6.45;2.40;;;;;;;;;;5044874;28;20049;-81
2023/03/29 14:43:26;;;;;;;3.75;2.25;;;;;;;;;;5058165;28;20044;-80
2023/03/29 14:45:52;;;;;;;5.55;2.42;;;;;;;;;;5050476;28;20184;-81
2023/03/29 14:48:20;;;;;;;6.93;2.20;;;;;;;;;;5076769;28;20048;-80
2023/03/29 14:50:46;;;;;;;7.68;2.08;;;;;;;;;;5069966;28;20135;-81
2023/03/29 14:53:16;;;;;;;5.45;1.90;;;;;;;;;;5079434;28;20044;-82
2023/03/29 14:55:44;;;;;;;6.03;2.00;;;;;;;;;;5086918;28;20045;-81
2023/03/29 14:58:18;;;;;;;5.93;2.05;;;;;;;;;;5082486;28;20144;-80
2023/03/29 15:00:46;;;;;;;4.57;1.98;;;;;;;;;;5080219;28;20044;-81
2023/03/29 15:03:14;;;;;;;3.70;2.00;;;;;;;;;;5063052;28;20041;-80
2023/03/29 15:05:42;;;;;;;6.43;2.25;;;;;;;;;;5060361;28;20324;-80
2023/03/29 15:08:13;;;;;;;5.07;2.00;;;;;;;;;;5080846;28;20047;-80
2023/03/29 15:10:41;;;;;;;3.38;1.98;;;;;;;;;;5082389;28;20049;-81
2023/03/29 15:13:15;;;;;;;4.25;1.75;;;;;;;;;;5083921;28;20135;-80
2023/03/29 15:15:42;;;;;;;5.53;1.75;;;;;;;;;;5051913;28;20052;-80